createdAt,value
2016-06-09T00:00:59.032Z,0
2016-06-09T00:01:59.052Z,0
2016-06-09T00:02:59.602Z,0
2016-06-09T00:03:59.370Z,0
2016-06-09T00:04:59.076Z,0
2016-06-09T00:05:59.079Z,0
2016-06-09T00:06:59.098Z,0
2016-06-09T00:07:59.101Z,0
2016-06-09T00:08:59.121Z,0
2016-06-09T00:09:59.123Z,0
2016-06-09T00:10:59.142Z,0
2016-06-09T00:11:59.144Z,0
2016-06-09T00:12:59.163Z,0
2016-06-09T00:13:59.182Z,0
2016-06-09T00:14:59.028Z,0
2016-06-09T00:15:59.188Z,0
2016-06-09T00:16:59.206Z,0
2016-06-09T00:17:59.601Z,0
2016-06-09T00:19:00.650Z,0
2016-06-09T00:19:59.232Z,0
2016-06-09T00:20:59.250Z,0
2016-06-09T00:21:59.113Z,0
2016-06-09T00:22:59.272Z,0
2016-06-09T00:23:59.276Z,0
2016-06-09T00:24:59.137Z,0
2016-06-09T00:25:59.297Z,0
2016-06-09T00:26:59.160Z,0
2016-06-09T00:27:59.335Z,0
2016-06-09T00:28:59.338Z,0
2016-06-09T00:29:59.340Z,0
2016-06-09T00:30:59.360Z,0
2016-06-09T00:31:59.394Z,0
2016-06-09T00:32:59.381Z,0
2016-06-09T00:33:59.290Z,0
2016-06-09T00:34:59.403Z,0
2016-06-09T00:35:59.516Z,0
2016-06-09T00:36:59.424Z,0
2016-06-09T00:37:59.427Z,0
2016-06-09T00:38:59.463Z,0
2016-06-09T00:39:59.465Z,0
2016-06-09T00:40:59.483Z,0
2016-06-09T00:41:59.331Z,0
2016-06-09T00:42:59.506Z,0
2016-06-09T00:43:59.524Z,0
2016-06-09T00:44:59.512Z,0
2016-06-09T00:45:59.373Z,0
2016-06-09T00:46:59.534Z,0
2016-06-09T00:48:00.224Z,0
2016-06-09T00:48:59.836Z,0
2016-06-09T00:49:59.589Z,0
2016-06-09T00:50:59.577Z,0
2016-06-09T00:51:59.596Z,0
2016-06-09T00:52:59.598Z,0
2016-06-09T00:53:59.634Z,0
2016-06-09T00:54:59.621Z,0
2016-06-09T00:55:59.639Z,0
2016-06-09T00:56:59.485Z,0
2016-06-09T00:57:59.661Z,0
2016-06-09T00:58:59.680Z,0
2016-06-09T00:59:59.699Z,0
2016-06-09T01:00:59.686Z,0
2016-06-09T01:01:59.705Z,0
2016-06-09T01:02:59.583Z,0
2016-06-09T01:04:00.070Z,0
2016-06-09T01:04:59.589Z,0
2016-06-09T01:05:59.593Z,0
2016-06-09T01:06:59.610Z,0
2016-06-09T01:07:59.769Z,0
2016-06-09T01:08:59.788Z,0
2016-06-09T01:09:59.792Z,0
2016-06-09T01:10:59.795Z,0
2016-06-09T01:11:59.814Z,0
2016-06-09T01:12:59.676Z,0
2016-06-09T01:13:59.851Z,0
2016-06-09T01:14:59.854Z,0
2016-06-09T01:15:59.716Z,0
2016-06-09T01:16:59.876Z,0
2016-06-09T01:17:59.879Z,0
2016-06-09T01:18:59.758Z,0
2016-06-09T01:19:59.900Z,0
2016-06-09T01:20:59.919Z,0
2016-06-09T01:21:59.938Z,0
2016-06-09T01:22:59.941Z,0
2016-06-09T01:23:59.959Z,0
2016-06-09T01:24:59.963Z,0
2016-06-09T01:25:59.966Z,0
2016-06-09T01:26:59.985Z,0
2016-06-09T01:27:59.987Z,0
2016-06-09T01:29:00.022Z,0
2016-06-09T01:29:59.870Z,0
2016-06-09T01:31:00.028Z,0
2016-06-09T01:32:00.031Z,0
2016-06-09T01:32:59.893Z,0
2016-06-09T01:34:00.522Z,0
2016-06-09T01:35:00.071Z,0
2016-06-09T01:36:00.090Z,0
2016-06-09T01:37:00.094Z,0
2016-06-09T01:38:00.111Z,0
2016-06-09T01:39:00.115Z,0
2016-06-09T01:40:00.134Z,0
2016-06-09T01:41:00.153Z,0
2016-06-09T01:42:00.156Z,0
2016-06-09T01:43:00.159Z,0
2016-06-09T01:44:00.162Z,0
2016-06-09T01:45:00.180Z,0
2016-06-09T01:46:00.216Z,0
2016-06-09T01:47:00.233Z,0
2016-06-09T01:48:00.222Z,0
2016-06-09T01:49:01.006Z,0
2016-06-09T01:50:00.243Z,0
2016-06-09T01:51:00.262Z,0
2016-06-09T01:52:00.249Z,0
2016-06-09T01:53:00.283Z,0
2016-06-09T01:54:00.286Z,0
2016-06-09T01:55:00.288Z,0
2016-06-09T01:56:00.308Z,0
2016-06-09T01:57:00.311Z,0
2016-06-09T01:58:00.330Z,0
2016-06-09T01:59:00.333Z,0
2016-06-09T02:00:00.212Z,0
2016-06-09T02:01:00.354Z,0
2016-06-09T02:02:00.201Z,0
2016-06-09T02:03:00.393Z,0
2016-06-09T02:04:00.239Z,0
2016-06-09T02:05:00.414Z,0
2016-06-09T02:06:00.417Z,0
2016-06-09T02:07:00.451Z,0
2016-06-09T02:08:00.439Z,0
2016-06-09T02:09:00.442Z,0
2016-06-09T02:10:00.460Z,0
2016-06-09T02:11:00.495Z,0
2016-06-09T02:12:00.482Z,0
2016-06-09T02:13:00.501Z,0
2016-06-09T02:14:00.505Z,0
2016-06-09T02:15:00.507Z,0
2016-06-09T02:16:00.370Z,0
2016-06-09T02:17:00.529Z,0
2016-06-09T02:18:00.392Z,0
2016-06-09T02:19:00.409Z,0
2016-06-09T02:20:00.570Z,0
2016-06-09T02:21:00.276Z,0
2016-06-09T02:22:00.590Z,0
2016-06-09T02:23:00.610Z,0
2016-06-09T02:24:00.613Z,0
2016-06-09T02:25:00.631Z,0
2016-06-09T02:26:00.478Z,0
2016-06-09T02:27:00.637Z,0
2016-06-09T02:28:00.656Z,0
2016-06-09T02:29:00.660Z,0
2016-06-09T02:30:00.522Z,0
2016-06-09T02:31:00.682Z,0
2016-06-09T02:32:00.560Z,0
2016-06-09T02:33:00.719Z,0
2016-06-09T02:34:02.284Z,0
2016-06-09T02:35:00.678Z,0
2016-06-09T02:36:00.806Z,0
2016-06-09T02:37:00.778Z,0
2016-06-09T02:38:00.765Z,0
2016-06-09T02:39:00.785Z,0
2016-06-09T02:40:00.787Z,0
2016-06-09T02:41:00.790Z,0
2016-06-09T02:42:00.809Z,0
2016-06-09T02:43:00.812Z,0
2016-06-09T02:44:00.830Z,0
2016-06-09T02:45:00.850Z,0
2016-06-09T02:46:00.852Z,0
2016-06-09T02:47:00.871Z,0
2016-06-09T02:48:00.874Z,0
2016-06-09T02:49:01.048Z,0
2016-06-09T02:50:00.990Z,0
2016-06-09T02:51:00.915Z,0
2016-06-09T02:52:00.918Z,0
2016-06-09T02:53:00.936Z,0
2016-06-09T02:54:00.939Z,0
2016-06-09T02:55:00.802Z,0
2016-06-09T02:56:00.962Z,0
2016-06-09T02:57:00.979Z,0
2016-06-09T02:58:00.982Z,0
2016-06-09T02:59:00.986Z,0
2016-06-09T03:00:01.005Z,0
2016-06-09T03:01:01.023Z,0
2016-06-09T03:02:01.027Z,0
2016-06-09T03:03:01.045Z,0
2016-06-09T03:04:00.970Z,0
2016-06-09T03:05:01.458Z,0
2016-06-09T03:06:01.102Z,0
2016-06-09T03:07:01.089Z,0
2016-06-09T03:08:01.107Z,0
2016-06-09T03:09:01.111Z,0
2016-06-09T03:10:01.130Z,0
2016-06-09T03:11:01.132Z,0
2016-06-09T03:12:01.151Z,0
2016-06-09T03:13:01.014Z,0
2016-06-09T03:14:01.157Z,0
2016-06-09T03:15:01.191Z,0
2016-06-09T03:16:01.195Z,0
2016-06-09T03:17:01.198Z,0
2016-06-09T03:18:01.216Z,0
2016-06-09T03:19:01.532Z,0
2016-06-09T03:20:01.082Z,0
2016-06-09T03:21:01.257Z,0
2016-06-09T03:22:01.260Z,0
2016-06-09T03:23:01.263Z,0
2016-06-09T03:24:01.266Z,0
2016-06-09T03:25:01.300Z,0
2016-06-09T03:26:01.304Z,0
2016-06-09T03:27:01.307Z,0
2016-06-09T03:28:01.324Z,0
2016-06-09T03:29:01.328Z,0
2016-06-09T03:30:01.331Z,0
2016-06-09T03:31:01.194Z,0
2016-06-09T03:32:01.369Z,0
2016-06-09T03:33:01.373Z,0
2016-06-09T03:34:01.812Z,0
2016-06-09T03:35:03.128Z,0
2016-06-09T03:36:01.460Z,0
2016-06-09T03:37:01.416Z,0
2016-06-09T03:38:01.434Z,0
2016-06-09T03:39:01.453Z,0
2016-06-09T03:40:01.456Z,0
2016-06-09T03:41:01.459Z,0
2016-06-09T03:42:01.477Z,0
2016-06-09T03:43:01.496Z,0
2016-06-09T03:44:01.515Z,0
2016-06-09T03:45:01.502Z,0
2016-06-09T03:46:01.505Z,0
2016-06-09T03:47:01.524Z,0
2016-06-09T03:48:01.543Z,0
2016-06-09T03:49:02.952Z,0
2016-06-09T03:50:02.550Z,0
2016-06-09T03:51:01.567Z,0
2016-06-09T03:52:01.586Z,0
2016-06-09T03:53:01.606Z,0
2016-06-09T03:54:01.609Z,0
2016-06-09T03:55:01.611Z,0
2016-06-09T03:56:01.615Z,0
2016-06-09T03:57:01.649Z,0
2016-06-09T03:58:01.496Z,0
2016-06-09T03:59:01.655Z,0
2016-06-09T04:00:01.673Z,0
2016-06-09T04:01:01.723Z,0
2016-06-09T04:02:01.679Z,0
2016-06-09T04:03:01.699Z,0
2016-06-09T04:04:01.718Z,0
2016-06-09T04:05:02.704Z,0
2016-06-09T04:06:01.739Z,0
2016-06-09T04:07:01.758Z,0
2016-06-09T04:08:01.761Z,0
2016-06-09T04:09:01.779Z,0
2016-06-09T04:10:01.783Z,0
2016-06-09T04:11:01.801Z,0
2016-06-09T04:12:01.804Z,0
2016-06-09T04:13:01.823Z,0
2016-06-09T04:14:01.701Z,0
2016-06-09T04:15:01.829Z,0
2016-06-09T04:16:01.833Z,0
2016-06-09T04:17:01.867Z,0
2016-06-09T04:18:01.885Z,0
2016-06-09T04:19:01.872Z,0
2016-06-09T04:20:01.782Z,0
2016-06-09T04:21:01.910Z,0
2016-06-09T04:22:01.928Z,0
2016-06-09T04:23:01.916Z,0
2016-06-09T04:24:01.935Z,0
2016-06-09T04:25:01.954Z,0
2016-06-09T04:26:01.816Z,0
2016-06-09T04:27:01.991Z,0
2016-06-09T04:28:01.978Z,0
2016-06-09T04:29:01.841Z,0
2016-06-09T04:30:02.016Z,0
2016-06-09T04:31:02.019Z,0
2016-06-09T04:32:02.022Z,0
2016-06-09T04:33:02.024Z,0
2016-06-09T04:34:02.044Z,0
2016-06-09T04:35:02.797Z,0
2016-06-09T04:36:02.080Z,0
2016-06-09T04:37:02.241Z,0
2016-06-09T04:38:02.103Z,0
2016-06-09T04:39:02.106Z,0
2016-06-09T04:40:02.109Z,0
2016-06-09T04:41:02.143Z,0
2016-06-09T04:42:02.131Z,0
2016-06-09T04:43:02.134Z,0
2016-06-09T04:44:02.153Z,0
2016-06-09T04:45:02.186Z,0
2016-06-09T04:46:02.189Z,0
2016-06-09T04:47:02.193Z,0
2016-06-09T04:48:02.040Z,0
2016-06-09T04:49:02.198Z,0
2016-06-09T04:50:02.281Z,0
2016-06-09T04:51:02.080Z,0
2016-06-09T04:52:02.240Z,0
2016-06-09T04:53:02.258Z,0
2016-06-09T04:54:02.261Z,0
2016-06-09T04:55:02.280Z,0
2016-06-09T04:56:02.299Z,0
2016-06-09T04:57:02.302Z,0
2016-06-09T04:58:02.009Z,0
2016-06-09T04:59:02.324Z,0
2016-06-09T05:00:02.326Z,0
2016-06-09T05:01:02.346Z,0
2016-06-09T05:02:02.349Z,0
2016-06-09T05:03:02.367Z,0
2016-06-09T05:04:02.230Z,0
2016-06-09T05:05:02.513Z,0
2016-06-09T05:06:02.423Z,0
2016-06-09T05:07:02.411Z,0
2016-06-09T05:08:02.429Z,0
2016-06-09T05:09:02.433Z,0
2016-06-09T05:10:02.435Z,0
2016-06-09T05:11:02.438Z,0
2016-06-09T05:12:02.489Z,0
2016-06-09T05:13:02.477Z,0
2016-06-09T05:14:02.525Z,0
2016-06-09T05:15:02.358Z,0
2016-06-09T05:16:02.501Z,0
2016-06-09T05:17:02.520Z,0
2016-06-09T05:18:02.538Z,0
2016-06-09T05:19:02.385Z,0
2016-06-09T05:20:03.373Z,0
2016-06-09T05:21:02.563Z,0
2016-06-09T05:22:02.410Z,0
2016-06-09T05:23:02.444Z,0
2016-06-09T05:24:02.588Z,0
2016-06-09T05:25:02.606Z,0
2016-06-09T05:26:02.626Z,0
2016-06-09T05:27:02.645Z,0
2016-06-09T05:28:02.632Z,0
2016-06-09T05:29:02.650Z,0
2016-06-09T05:30:02.357Z,0
2016-06-09T05:31:02.688Z,5
2016-06-09T05:32:02.675Z,5
2016-06-09T05:33:02.725Z,0
2016-06-09T05:34:02.712Z,0
2016-06-09T05:35:03.012Z,0
2016-06-09T05:36:02.735Z,5
2016-06-09T05:37:02.784Z,5
2016-06-09T05:38:02.740Z,5
2016-06-09T05:39:02.602Z,5
2016-06-09T05:40:02.763Z,5
2016-06-09T05:41:02.781Z,5
2016-06-09T05:42:02.784Z,5
2016-06-09T05:43:02.834Z,5
2016-06-09T05:44:02.805Z,5
2016-06-09T05:45:02.825Z,5
2016-06-09T05:46:02.842Z,5
2016-06-09T05:47:02.862Z,5
2016-06-09T05:48:02.865Z,5
2016-06-09T05:49:02.868Z,5
2016-06-09T05:50:03.136Z,5
2016-06-09T05:51:02.905Z,5
2016-06-09T05:52:02.924Z,5
2016-06-09T05:53:02.911Z,5
2016-06-09T05:54:02.930Z,5
2016-06-09T05:55:02.934Z,5
2016-06-09T05:56:02.796Z,5
2016-06-09T05:57:02.970Z,10
2016-06-09T05:58:02.818Z,10
2016-06-09T05:59:03.008Z,5
2016-06-09T06:00:02.996Z,5
2016-06-09T06:01:03.030Z,5
2016-06-09T06:02:03.018Z,5
2016-06-09T06:03:03.020Z,5
2016-06-09T06:04:03.040Z,10
2016-06-09T06:05:03.807Z,5
2016-06-09T06:06:03.045Z,5
2016-06-09T06:07:03.063Z,5
2016-06-09T06:08:03.082Z,10
2016-06-09T06:09:03.101Z,5
2016-06-09T06:10:03.120Z,5
2016-06-09T06:11:03.108Z,10
2016-06-09T06:12:03.126Z,10
2016-06-09T06:13:03.129Z,10
2016-06-09T06:14:03.148Z,10
2016-06-09T06:15:03.167Z,10
2016-06-09T06:16:03.185Z,10
2016-06-09T06:17:03.188Z,10
2016-06-09T06:18:03.191Z,10
2016-06-09T06:19:03.211Z,10
2016-06-09T06:20:03.776Z,10
2016-06-09T06:21:03.232Z,10
2016-06-09T06:22:03.251Z,10
2016-06-09T06:23:03.254Z,10
2016-06-09T06:24:03.257Z,10
2016-06-09T06:25:03.276Z,10
2016-06-09T06:26:03.279Z,10
2016-06-09T06:27:03.141Z,10
2016-06-09T06:28:03.300Z,10
2016-06-09T06:29:03.319Z,10
2016-06-09T06:30:03.323Z,10
2016-06-09T06:31:03.184Z,10
2016-06-09T06:32:03.187Z,10
2016-06-09T06:33:03.362Z,10
2016-06-09T06:34:03.366Z,10
2016-06-09T06:35:03.618Z,10
2016-06-09T06:36:03.388Z,10
2016-06-09T06:37:03.438Z,10
2016-06-09T06:38:03.425Z,10
2016-06-09T06:39:03.428Z,10
2016-06-09T06:40:03.290Z,10
2016-06-09T06:41:03.450Z,10
2016-06-09T06:42:03.484Z,10
2016-06-09T06:43:03.471Z,10
2016-06-09T06:44:03.319Z,10
2016-06-09T06:45:03.337Z,10
2016-06-09T06:46:03.512Z,15
2016-06-09T06:47:03.499Z,15
2016-06-09T06:48:03.519Z,15
2016-06-09T06:49:03.553Z,15
2016-06-09T06:50:04.243Z,15
2016-06-09T06:51:03.559Z,15
2016-06-09T06:52:03.576Z,15
2016-06-09T06:53:03.565Z,15
2016-06-09T06:54:03.583Z,20
2016-06-09T06:55:03.602Z,20
2016-06-09T06:56:03.605Z,20
2016-06-09T06:57:03.624Z,20
2016-06-09T06:58:03.627Z,20
2016-06-09T06:59:03.646Z,20
2016-06-09T07:00:03.509Z,20
2016-06-09T07:01:03.526Z,20
2016-06-09T07:02:03.670Z,20
2016-06-09T07:03:03.690Z,20
2016-06-09T07:04:03.583Z,15
2016-06-09T07:05:04.366Z,15
2016-06-09T07:06:03.730Z,10
2016-06-09T07:07:03.748Z,15
2016-06-09T07:08:03.736Z,15
2016-06-09T07:09:03.754Z,15
2016-06-09T07:10:03.773Z,10
2016-06-09T07:11:03.793Z,10
2016-06-09T07:12:03.795Z,10
2016-06-09T07:13:03.798Z,15
2016-06-09T07:14:03.832Z,15
2016-06-09T07:15:03.820Z,15
2016-06-09T07:16:03.854Z,15
2016-06-09T07:17:03.842Z,15
2016-06-09T07:18:03.860Z,15
2016-06-09T07:19:03.864Z,15
2016-06-09T07:20:04.257Z,20
2016-06-09T07:21:04.057Z,20
2016-06-09T07:22:03.904Z,20
2016-06-09T07:23:03.922Z,20
2016-06-09T07:24:03.941Z,20
2016-06-09T07:25:03.913Z,20
2016-06-09T07:26:03.948Z,20
2016-06-09T07:27:03.795Z,20
2016-06-09T07:28:03.970Z,20
2016-06-09T07:29:03.956Z,15
2016-06-09T07:30:03.976Z,15
2016-06-09T07:31:04.010Z,15
2016-06-09T07:32:03.997Z,15
2016-06-09T07:33:04.000Z,15
2016-06-09T07:34:04.705Z,15
2016-06-09T07:35:04.225Z,15
2016-06-09T07:36:04.025Z,20
2016-06-09T07:37:04.059Z,20
2016-06-09T07:38:03.906Z,20
2016-06-09T07:39:03.909Z,20
2016-06-09T07:40:03.928Z,20
2016-06-09T07:41:04.087Z,20
2016-06-09T07:42:03.934Z,20
2016-06-09T07:43:03.969Z,25
2016-06-09T07:44:04.127Z,20
2016-06-09T07:45:04.131Z,20
2016-06-09T07:46:04.134Z,20
2016-06-09T07:47:04.153Z,25
2016-06-09T07:48:03.999Z,25
2016-06-09T07:49:04.174Z,25
2016-06-09T07:50:04.287Z,20
2016-06-09T07:51:04.837Z,20
2016-06-09T07:52:04.231Z,20
2016-06-09T07:53:04.218Z,15
2016-06-09T07:54:03.924Z,15
2016-06-09T07:55:03.927Z,15
2016-06-09T07:56:04.259Z,15
2016-06-09T07:57:04.262Z,20
2016-06-09T07:58:04.280Z,20
2016-06-09T07:59:04.282Z,20
2016-06-09T08:00:04.302Z,20
2016-06-09T08:01:04.289Z,20
2016-06-09T08:02:04.292Z,15
2016-06-09T08:03:04.170Z,15
2016-06-09T08:04:04.173Z,15
2016-06-09T08:05:05.161Z,15
2016-06-09T08:06:04.977Z,20
2016-06-09T08:07:04.401Z,20
2016-06-09T08:08:04.374Z,20
2016-06-09T08:09:04.393Z,20
2016-06-09T08:10:04.410Z,20
2016-06-09T08:11:04.414Z,20
2016-06-09T08:12:04.417Z,20
2016-06-09T08:13:04.435Z,20
2016-06-09T08:14:04.439Z,20
2016-06-09T08:15:04.456Z,20
2016-06-09T08:16:04.460Z,20
2016-06-09T08:17:04.463Z,20
2016-06-09T08:18:04.482Z,20
2016-06-09T08:19:04.485Z,20
2016-06-09T08:20:05.145Z,20
2016-06-09T08:21:04.788Z,20
2016-06-09T08:22:04.542Z,20
2016-06-09T08:23:04.544Z,20
2016-06-09T08:24:04.564Z,15
2016-06-09T08:25:04.569Z,15
2016-06-09T08:26:04.645Z,15
2016-06-09T08:27:04.675Z,20
2016-06-09T08:28:04.751Z,20
2016-06-09T08:29:04.627Z,15
2016-06-09T08:30:04.686Z,15
2016-06-09T08:31:04.845Z,5
2016-06-09T08:32:04.879Z,5
2016-06-09T08:33:04.897Z,5
2016-06-09T08:34:04.775Z,5
2016-06-09T08:35:04.996Z,5
2016-06-09T08:36:05.974Z,5
2016-06-09T08:37:04.983Z,5
2016-06-09T08:38:05.006Z,5
2016-06-09T08:39:05.561Z,5
2016-06-09T08:40:05.038Z,5
2016-06-09T08:41:04.887Z,5
2016-06-09T08:42:05.065Z,5
2016-06-09T08:43:05.085Z,5
2016-06-09T08:44:04.918Z,10
2016-06-09T08:45:05.094Z,10
2016-06-09T08:46:05.114Z,10
2016-06-09T08:47:05.133Z,10
2016-06-09T08:48:05.137Z,10
2016-06-09T08:49:05.157Z,10
2016-06-09T08:50:06.755Z,10
2016-06-09T08:51:05.086Z,15
2016-06-09T08:52:05.198Z,15
2016-06-09T08:53:05.030Z,15
2016-06-09T08:54:05.050Z,15
2016-06-09T08:55:05.209Z,15
2016-06-09T08:56:05.229Z,15
2016-06-09T08:57:05.262Z,15
2016-06-09T08:58:05.251Z,15
2016-06-09T08:59:05.269Z,15
2016-06-09T09:00:05.287Z,15
2016-06-09T09:01:05.274Z,15
2016-06-09T09:02:05.293Z,10
2016-06-09T09:03:05.296Z,5
2016-06-09T09:04:05.314Z,5
2016-06-09T09:05:06.693Z,5
2016-06-09T09:06:05.712Z,5
2016-06-09T09:07:05.356Z,5
2016-06-09T09:08:05.359Z,0
2016-06-09T09:09:05.362Z,0
2016-06-09T09:10:05.365Z,0
2016-06-09T09:11:05.400Z,0
2016-06-09T09:12:05.402Z,0
2016-06-09T09:13:05.422Z,0
2016-06-09T09:14:05.425Z,0
2016-06-09T09:15:05.443Z,0
2016-06-09T09:16:05.430Z,0
2016-06-09T09:17:05.449Z,0
2016-06-09T09:18:05.468Z,0
2016-06-09T09:19:05.471Z,0
2016-06-09T09:20:05.489Z,5
2016-06-09T09:21:06.305Z,5
2016-06-09T09:22:05.511Z,5
2016-06-09T09:23:05.530Z,5
2016-06-09T09:24:05.533Z,5
2016-06-09T09:25:05.536Z,5
2016-06-09T09:26:05.554Z,5
2016-06-09T09:27:05.557Z,5
2016-06-09T09:28:05.561Z,5
2016-06-09T09:29:05.579Z,5
2016-06-09T09:30:05.598Z,5
2016-06-09T09:31:05.617Z,5
2016-06-09T09:32:05.619Z,10
2016-06-09T09:33:05.622Z,10
2016-06-09T09:34:05.642Z,10
2016-06-09T09:35:05.504Z,10
2016-06-09T09:36:05.492Z,10
2016-06-09T09:37:05.666Z,10
2016-06-09T09:38:05.686Z,10
2016-06-09T09:39:05.688Z,15
2016-06-09T09:40:05.722Z,15
2016-06-09T09:41:05.569Z,10
2016-06-09T09:42:05.573Z,10
2016-06-09T09:43:05.575Z,10
2016-06-09T09:44:05.735Z,10
2016-06-09T09:45:05.598Z,10
2016-06-09T09:46:05.773Z,10
2016-06-09T09:47:06.010Z,5
2016-06-09T09:48:05.793Z,5
2016-06-09T09:49:05.797Z,5
2016-06-09T09:50:05.660Z,5
2016-06-09T09:51:06.710Z,5
2016-06-09T09:52:05.854Z,5
2016-06-09T09:53:05.840Z,5
2016-06-09T09:54:05.859Z,5
2016-06-09T09:55:05.863Z,5
2016-06-09T09:56:05.882Z,5
2016-06-09T09:57:05.884Z,5
2016-06-09T09:58:05.903Z,5
2016-06-09T09:59:05.921Z,5
2016-06-09T10:00:05.925Z,10
2016-06-09T10:01:05.944Z,10
2016-06-09T10:02:05.806Z,10
2016-06-09T10:03:05.965Z,10
2016-06-09T10:04:05.968Z,10
2016-06-09T10:05:05.971Z,10
2016-06-09T10:06:06.459Z,10
2016-06-09T10:07:05.993Z,10
2016-06-09T10:08:05.855Z,10
2016-06-09T10:09:06.015Z,15
2016-06-09T10:10:06.033Z,15
2016-06-09T10:11:06.037Z,15
2016-06-09T10:12:06.071Z,15
2016-06-09T10:13:06.074Z,15
2016-06-09T10:14:06.077Z,20
2016-06-09T10:15:05.940Z,20
2016-06-09T10:16:06.115Z,20
2016-06-09T10:17:06.133Z,20
2016-06-09T10:18:06.136Z,20
2016-06-09T10:19:06.139Z,20
2016-06-09T10:20:06.142Z,20
2016-06-09T10:21:06.959Z,20
2016-06-09T10:22:06.008Z,20
2016-06-09T10:23:06.012Z,20
2016-06-09T10:24:06.077Z,25
2016-06-09T10:25:06.188Z,25
2016-06-09T10:26:06.207Z,20
2016-06-09T10:27:06.086Z,25
2016-06-09T10:28:06.230Z,20
2016-06-09T10:29:06.248Z,15
2016-06-09T10:30:06.251Z,15
2016-06-09T10:31:06.271Z,15
2016-06-09T10:32:06.289Z,15
2016-06-09T10:33:06.292Z,20
2016-06-09T10:34:06.295Z,20
2016-06-09T10:35:06.313Z,20
2016-06-09T10:36:06.880Z,20
2016-06-09T10:37:06.429Z,25
2016-06-09T10:38:06.353Z,30
2016-06-09T10:39:06.372Z,30
2016-06-09T10:40:06.376Z,25
2016-06-09T10:41:06.379Z,20
2016-06-09T10:42:06.382Z,30
2016-06-09T10:43:06.416Z,30
2016-06-09T10:44:06.404Z,25
2016-06-09T10:45:06.438Z,25
2016-06-09T10:46:06.442Z,30
2016-06-09T10:47:06.460Z,25
2016-06-09T10:48:06.447Z,25
2016-06-09T10:49:06.623Z,30
2016-06-09T10:50:06.469Z,30
2016-06-09T10:51:06.207Z,25
2016-06-09T10:52:06.991Z,25
2016-06-09T10:53:06.510Z,25
2016-06-09T10:54:06.528Z,25
2016-06-09T10:55:06.390Z,25
2016-06-09T10:56:06.550Z,25
2016-06-09T10:57:06.397Z,30
2016-06-09T10:58:06.556Z,30
2016-06-09T10:59:06.575Z,30
2016-06-09T11:00:06.594Z,25
2016-06-09T11:01:24.924Z,25
2016-06-09T11:02:12.960Z,25
2016-06-09T11:03:06.634Z,25
2016-06-09T11:04:06.638Z,25
2016-06-09T11:05:06.656Z,15
2016-06-09T11:06:06.533Z,15
2016-06-09T11:07:07.412Z,10
2016-06-09T11:08:06.681Z,10
2016-06-09T11:09:06.715Z,15
2016-06-09T11:10:06.577Z,15
2016-06-09T11:11:06.565Z,15
2016-06-09T11:12:06.740Z,15
2016-06-09T11:13:06.743Z,15
2016-06-09T11:14:06.761Z,15
2016-06-09T11:15:06.780Z,15
2016-06-09T11:16:06.767Z,15
2016-06-09T11:17:06.770Z,15
2016-06-09T11:18:06.789Z,15
2016-06-09T11:19:06.809Z,15
2016-06-09T11:20:06.811Z,15
2016-06-09T11:21:06.986Z,15
2016-06-09T11:22:07.489Z,15
2016-06-09T11:23:06.711Z,20
2016-06-09T11:24:22.995Z,20
2016-06-09T11:25:06.858Z,20
2016-06-09T11:26:06.876Z,20
2016-06-09T11:27:06.739Z,20
2016-06-09T11:28:06.899Z,25
2016-06-09T11:29:06.917Z,25
2016-06-09T11:30:06.921Z,30
2016-06-09T11:31:06.938Z,30
2016-06-09T11:32:06.957Z,30
2016-06-09T11:33:06.992Z,25
2016-06-09T11:34:06.980Z,25
2016-06-09T11:35:06.982Z,30
2016-06-09T11:36:07.032Z,35
2016-06-09T11:37:07.801Z,35
2016-06-09T11:38:07.023Z,35
2016-06-09T11:39:06.870Z,35
2016-06-09T11:40:07.029Z,35
2016-06-09T11:41:07.048Z,30
2016-06-09T11:42:07.066Z,30
2016-06-09T11:43:07.070Z,25
2016-06-09T11:44:07.089Z,30
2016-06-09T11:45:07.092Z,25
2016-06-09T11:46:07.095Z,20
2016-06-09T11:47:07.113Z,20
2016-06-09T11:48:07.132Z,15
2016-06-09T11:49:07.150Z,15
2016-06-09T11:50:07.154Z,15
2016-06-09T11:51:07.657Z,15
2016-06-09T11:52:07.550Z,15
2016-06-09T11:53:07.194Z,20
2016-06-09T11:54:07.182Z,15
2016-06-09T11:55:07.200Z,20
2016-06-09T11:56:07.204Z,20
2016-06-09T11:57:07.206Z,20
2016-06-09T11:58:07.241Z,20
2016-06-09T11:59:07.244Z,20
2016-06-09T12:00:07.262Z,20
2016-06-09T12:01:07.266Z,20
2016-06-09T12:02:07.284Z,25
2016-06-09T12:03:07.131Z,25
2016-06-09T12:04:07.306Z,30
2016-06-09T12:05:07.309Z,30
2016-06-09T12:06:07.343Z,25
2016-06-09T12:07:07.221Z,25
2016-06-09T12:08:07.365Z,30
2016-06-09T12:09:07.352Z,30
2016-06-09T12:10:07.386Z,25
2016-06-09T12:11:07.390Z,25
2016-06-09T12:12:07.392Z,25
2016-06-09T12:13:07.411Z,25
2016-06-09T12:14:07.414Z,30
2016-06-09T12:15:07.434Z,35
2016-06-09T12:16:07.421Z,35
2016-06-09T12:17:07.455Z,30
2016-06-09T12:18:07.458Z,30
2016-06-09T12:19:07.477Z,35
2016-06-09T12:20:07.496Z,35
2016-06-09T12:21:09.280Z,35
2016-06-09T12:22:08.095Z,35
2016-06-09T12:23:07.520Z,35
2016-06-09T12:24:07.524Z,30
2016-06-09T12:25:07.386Z,35
2016-06-09T12:26:07.546Z,35
2016-06-09T12:27:07.564Z,30
2016-06-09T12:28:07.582Z,30
2016-06-09T12:29:07.430Z,30
2016-06-09T12:30:07.605Z,30
2016-06-09T12:31:07.467Z,25
2016-06-09T12:32:07.611Z,25
2016-06-09T12:33:07.645Z,25
2016-06-09T12:34:07.648Z,25
2016-06-09T12:35:07.667Z,30
2016-06-09T12:36:07.530Z,30
2016-06-09T12:37:08.658Z,35
2016-06-09T12:38:07.677Z,35
2016-06-09T12:39:07.710Z,35
2016-06-09T12:40:07.728Z,35
2016-06-09T12:41:07.732Z,35
2016-06-09T12:42:07.735Z,35
2016-06-09T12:43:07.754Z,35
2016-06-09T12:44:07.616Z,35
2016-06-09T12:45:07.776Z,30
2016-06-09T12:46:07.779Z,30
2016-06-09T12:47:07.797Z,30
2016-06-09T12:48:07.832Z,35
2016-06-09T12:49:07.819Z,30
2016-06-09T12:50:07.823Z,30
2016-06-09T12:51:09.279Z,30
2016-06-09T12:52:08.203Z,30
2016-06-09T12:53:07.878Z,35
2016-06-09T12:54:07.725Z,35
2016-06-09T12:55:07.885Z,30
2016-06-09T12:56:07.887Z,35
2016-06-09T12:57:07.906Z,35
2016-06-09T12:58:07.769Z,35
2016-06-09T12:59:07.772Z,40
2016-06-09T13:00:07.947Z,40
2016-06-09T13:01:07.950Z,40
2016-06-09T13:02:07.968Z,40
2016-06-09T13:03:07.831Z,40
2016-06-09T13:04:07.990Z,35
2016-06-09T13:05:07.994Z,35
2016-06-09T13:06:08.169Z,35
2016-06-09T13:07:08.875Z,35
2016-06-09T13:08:08.034Z,35
2016-06-09T13:09:08.036Z,35
2016-06-09T13:10:08.056Z,30
2016-06-09T13:11:08.074Z,30
2016-06-09T13:12:08.093Z,30
2016-06-09T13:13:08.096Z,30
2016-06-09T13:14:08.115Z,25
2016-06-09T13:15:08.119Z,25
2016-06-09T13:16:08.136Z,25
2016-06-09T13:17:08.139Z,25
2016-06-09T13:18:08.143Z,20
2016-06-09T13:19:08.162Z,20
2016-06-09T13:20:08.165Z,20
2016-06-09T13:21:09.323Z,20
2016-06-09T13:22:09.046Z,25
2016-06-09T13:23:08.220Z,25
2016-06-09T13:24:08.223Z,25
2016-06-09T13:25:08.071Z,25
2016-06-09T13:26:08.230Z,25
2016-06-09T13:27:08.264Z,25
2016-06-09T13:28:08.251Z,25
2016-06-09T13:29:08.287Z,25
2016-06-09T13:30:08.305Z,25
2016-06-09T13:31:08.292Z,25
2016-06-09T13:32:08.310Z,25
2016-06-09T13:33:08.173Z,25
2016-06-09T13:34:08.333Z,25
2016-06-09T13:35:08.352Z,20
2016-06-09T13:36:08.823Z,20
2016-06-09T13:37:08.748Z,20
2016-06-09T13:38:08.376Z,20
2016-06-09T13:39:08.410Z,20
2016-06-09T13:40:08.398Z,20
2016-06-09T13:41:08.416Z,20
2016-06-09T13:42:08.279Z,20
2016-06-09T13:43:08.438Z,20
2016-06-09T13:44:08.457Z,25
2016-06-09T13:45:08.460Z,25
2016-06-09T13:46:08.479Z,25
2016-06-09T13:47:08.514Z,25
2016-06-09T13:48:08.485Z,30
2016-06-09T13:49:08.504Z,30
2016-06-09T13:50:08.506Z,30
2016-06-09T13:51:08.384Z,30
2016-06-09T13:52:08.575Z,30
2016-06-09T13:53:08.578Z,30
2016-06-09T13:54:08.581Z,30
2016-06-09T13:55:28.616Z,30
2016-06-09T13:56:08.572Z,30
2016-06-09T13:57:08.591Z,30
2016-06-09T13:58:08.610Z,30
2016-06-09T13:59:08.629Z,30
2016-06-09T14:00:08.616Z,30
2016-06-09T14:01:08.649Z,30
2016-06-09T14:02:08.652Z,30
2016-06-09T14:03:08.671Z,30
2016-06-09T14:04:08.675Z,30
2016-06-09T14:05:08.678Z,30
2016-06-09T14:06:08.697Z,30
2016-06-09T14:07:08.715Z,30
2016-06-09T14:08:08.718Z,30
2016-06-09T14:09:08.768Z,30
2016-06-09T14:10:08.756Z,30
2016-06-09T14:11:08.744Z,25
2016-06-09T14:12:08.777Z,25
2016-06-09T14:13:08.780Z,20
2016-06-09T14:14:08.628Z,15
2016-06-09T14:15:08.802Z,15
2016-06-09T14:16:08.806Z,15
2016-06-09T14:17:08.824Z,15
2016-06-09T14:18:08.687Z,15
2016-06-09T14:19:08.862Z,15
2016-06-09T14:20:08.865Z,15
2016-06-09T14:21:08.883Z,15
2016-06-09T14:22:08.747Z,15
2016-06-09T14:23:08.889Z,15
2016-06-09T14:24:08.908Z,15
2016-06-09T14:25:08.770Z,15
2016-06-09T14:26:08.929Z,15
2016-06-09T14:27:08.949Z,15
2016-06-09T14:28:08.968Z,15
2016-06-09T14:29:08.971Z,15
2016-06-09T14:30:20.349Z,15
2016-06-09T14:31:08.992Z,15